sensor_id;sensor_type;location;lat;lon;timestamp;pressure;altitude;pressure_sealevel;temperature;humidity
14882;BME280;7533;51.278;12.588;2023-07-08T00:03:21;100481.66;;;29.96;48.08
14882;BME280;7533;51.278;12.588;2023-07-08T00:08:25;100485.78;;;30.00;47.68
14882;BME280;7533;51.278;12.588;2023-07-08T00:13:27;100481.34;;;29.99;47.51
14882;BME280;7533;51.278;12.588;2023-07-08T00:18:32;100486.13;;;29.97;47.59
14882;BME280;7533;51.278;12.588;2023-07-08T00:23:34;100485.56;;;29.94;47.45
14882;BME280;7533;51.278;12.588;2023-07-08T00:28:38;100477.53;;;29.92;47.54
14882;BME280;7533;51.278;12.588;2023-07-08T00:33:42;100479.88;;;29.87;47.75
14882;BME280;7533;51.278;12.588;2023-07-08T00:38:46;100475.56;;;29.85;47.63
14882;BME280;7533;51.278;12.588;2023-07-08T00:43:50;100469.25;;;29.84;47.58
14882;BME280;7533;51.278;12.588;2023-07-08T00:49:03;100472.47;;;29.80;47.84
14882;BME280;7533;51.278;12.588;2023-07-08T00:54:10;100472.47;;;29.80;47.82
14882;BME280;7533;51.278;12.588;2023-07-08T00:59:18;100461.94;;;29.67;47.65
14882;BME280;7533;51.278;12.588;2023-07-08T01:04:32;100469.13;;;29.68;47.63
14882;BME280;7533;51.278;12.588;2023-07-08T01:09:37;100477.78;;;29.63;47.55
14882;BME280;7533;51.278;12.588;2023-07-08T01:14:42;100470.91;;;29.59;47.91
14882;BME280;7533;51.278;12.588;2023-07-08T01:19:48;100465.63;;;29.58;47.79
14882;BME280;7533;51.278;12.588;2023-07-08T01:24:54;100472.41;;;29.54;47.61
14882;BME280;7533;51.278;12.588;2023-07-08T01:29:58;100474.53;;;29.50;47.96
14882;BME280;7533;51.278;12.588;2023-07-08T01:35:02;100461.75;;;29.50;47.88
14882;BME280;7533;51.278;12.588;2023-07-08T01:40:34;100462.22;;;29.46;47.66
14882;BME280;7533;51.278;12.588;2023-07-08T01:45:40;100458.63;;;29.45;47.92
14882;BME280;7533;51.278;12.588;2023-07-08T01:50:48;100459.81;;;29.43;47.88
14882;BME280;7533;51.278;12.588;2023-07-08T01:55:53;100455.13;;;29.35;47.66
14882;BME280;7533;51.278;12.588;2023-07-08T02:00:56;100453.56;;;29.33;47.67
14882;BME280;7533;51.278;12.588;2023-07-08T02:06:00;100452.88;;;29.31;47.77
14882;BME280;7533;51.278;12.588;2023-07-08T02:11:04;100454.16;;;29.27;47.79
14882;BME280;7533;51.278;12.588;2023-07-08T02:16:07;100450.03;;;29.22;47.88
14882;BME280;7533;51.278;12.588;2023-07-08T02:21:10;100450.19;;;29.21;47.90
14882;BME280;7533;51.278;12.588;2023-07-08T02:26:15;100456.09;;;29.16;47.90
14882;BME280;7533;51.278;12.588;2023-07-08T02:31:18;100452.50;;;29.16;48.36
14882;BME280;7533;51.278;12.588;2023-07-08T02:36:22;100443.09;;;29.10;47.96
14882;BME280;7533;51.278;12.588;2023-07-08T02:41:26;100445.56;;;29.04;48.10
14882;BME280;7533;51.278;12.588;2023-07-08T02:46:29;100440.72;;;28.97;48.35
14882;BME280;7533;51.278;12.588;2023-07-08T02:51:32;100445.44;;;28.95;48.56
14882;BME280;7533;51.278;12.588;2023-07-08T02:56:36;100445.59;;;28.94;48.50
14882;BME280;7533;51.278;12.588;2023-07-08T03:01:39;100448.22;;;28.86;48.65
14882;BME280;7533;51.278;12.588;2023-07-08T03:06:44;100449.50;;;28.82;48.73
14882;BME280;7533;51.278;12.588;2023-07-08T03:11:49;100460.56;;;28.80;48.52
14882;BME280;7533;51.278;12.588;2023-07-08T03:16:51;100461.16;;;28.74;48.75
14882;BME280;7533;51.278;12.588;2023-07-08T03:21:54;100461.03;;;28.66;48.65
14882;BME280;7533;51.278;12.588;2023-07-08T03:26:59;100469.66;;;28.61;49.06
14882;BME280;7533;51.278;12.588;2023-07-08T03:32:10;100463.09;;;28.54;49.00
14882;BME280;7533;51.278;12.588;2023-07-08T03:37:15;100456.09;;;28.52;49.11
14882;BME280;7533;51.278;12.588;2023-07-08T03:42:19;100460.09;;;28.48;48.87
14882;BME280;7533;51.278;12.588;2023-07-08T03:47:22;100467.88;;;28.42;49.42
14882;BME280;7533;51.278;12.588;2023-07-08T03:52:25;100468.56;;;28.44;49.11
14882;BME280;7533;51.278;12.588;2023-07-08T03:57:29;100469.28;;;28.46;49.12
14882;BME280;7533;51.278;12.588;2023-07-08T04:02:33;100458.25;;;28.48;49.46
14882;BME280;7533;51.278;12.588;2023-07-08T04:07:36;100466.41;;;28.48;49.37
14882;BME280;7533;51.278;12.588;2023-07-08T04:12:40;100461.97;;;28.47;49.41
14882;BME280;7533;51.278;12.588;2023-07-08T04:17:46;100459.53;;;28.44;49.53
14882;BME280;7533;51.278;12.588;2023-07-08T04:22:50;100465.41;;;28.39;49.59
14882;BME280;7533;51.278;12.588;2023-07-08T04:27:55;100467.00;;;28.42;49.70
14882;BME280;7533;51.278;12.588;2023-07-08T04:32:57;100471.16;;;28.46;49.85
14882;BME280;7533;51.278;12.588;2023-07-08T04:38:01;100470.84;;;28.49;49.61
14882;BME280;7533;51.278;12.588;2023-07-08T04:43:11;100475.44;;;28.49;49.91
14882;BME280;7533;51.278;12.588;2023-07-08T04:48:15;100475.59;;;28.47;50.08
14882;BME280;7533;51.278;12.588;2023-07-08T04:53:18;100482.91;;;28.46;50.35
14882;BME280;7533;51.278;12.588;2023-07-08T04:58:22;100472.28;;;28.43;50.40
14882;BME280;7533;51.278;12.588;2023-07-08T05:03:27;100477.91;;;28.42;50.39
14882;BME280;7533;51.278;12.588;2023-07-08T05:08:30;100480.03;;;28.38;50.68
14882;BME280;7533;51.278;12.588;2023-07-08T05:13:34;100496.38;;;28.38;50.65
14882;BME280;7533;51.278;12.588;2023-07-08T05:18:37;100498.97;;;28.40;50.61
14882;BME280;7533;51.278;12.588;2023-07-08T05:23:40;100507.41;;;28.37;50.78
14882;BME280;7533;51.278;12.588;2023-07-08T05:28:44;100508.25;;;28.28;51.14
14882;BME280;7533;51.278;12.588;2023-07-08T05:33:47;100508.41;;;28.26;51.23
14882;BME280;7533;51.278;12.588;2023-07-08T05:38:50;100505.69;;;28.26;51.52
14882;BME280;7533;51.278;12.588;2023-07-08T05:43:54;100509.25;;;28.27;51.22
14882;BME280;7533;51.278;12.588;2023-07-08T05:48:57;100502.81;;;28.28;51.42
14882;BME280;7533;51.278;12.588;2023-07-08T05:54:03;100503.97;;;28.25;51.71
14882;BME280;7533;51.278;12.588;2023-07-08T05:59:07;100503.13;;;28.25;51.65
14882;BME280;7533;51.278;12.588;2023-07-08T06:04:10;100498.38;;;28.27;51.76
14882;BME280;7533;51.278;12.588;2023-07-08T06:09:13;100498.38;;;28.27;50.10
14882;BME280;7533;51.278;12.588;2023-07-08T06:14:18;100494.38;;;28.21;49.91
14882;BME280;7533;51.278;12.588;2023-07-08T06:19:20;100490.69;;;28.12;48.54
14882;BME280;7533;51.278;12.588;2023-07-08T06:24:23;100503.28;;;28.13;48.74
14882;BME280;7533;51.278;12.588;2023-07-08T06:29:28;100508.44;;;28.07;48.68
14882;BME280;7533;51.278;12.588;2023-07-08T06:34:31;100495.38;;;28.10;48.81
14882;BME280;7533;51.278;12.588;2023-07-08T06:39:33;100497.69;;;28.15;48.84
14882;BME280;7533;51.278;12.588;2023-07-08T06:44:38;100500.41;;;28.15;48.67
14882;BME280;7533;51.278;12.588;2023-07-08T06:49:40;100491.81;;;28.10;49.05
14882;BME280;7533;51.278;12.588;2023-07-08T06:54:43;100492.53;;;28.12;48.75
14882;BME280;7533;51.278;12.588;2023-07-08T06:59:48;100495.25;;;28.12;48.39
14882;BME280;7533;51.278;12.588;2023-07-08T07:04:51;100482.94;;;28.08;47.68
14882;BME280;7533;51.278;12.588;2023-07-08T07:09:54;100486.09;;;28.13;47.15
14882;BME280;7533;51.278;12.588;2023-07-08T07:15:05;100493.97;;;28.06;46.63
14882;BME280;7533;51.278;12.588;2023-07-08T07:20:08;100493.81;;;28.17;47.15
14882;BME280;7533;51.278;12.588;2023-07-08T07:25:11;100498.25;;;28.09;47.99
14882;BME280;7533;51.278;12.588;2023-07-08T07:30:16;100495.66;;;28.17;47.83
14882;BME280;7533;51.278;12.588;2023-07-08T07:35:19;100493.66;;;28.19;48.14
14882;BME280;7533;51.278;12.588;2023-07-08T07:40:21;100490.78;;;28.20;48.34
14882;BME280;7533;51.278;12.588;2023-07-08T07:45:26;100490.22;;;28.17;49.35
14882;BME280;7533;51.278;12.588;2023-07-08T07:50:29;100485.22;;;28.12;48.81
14882;BME280;7533;51.278;12.588;2023-07-08T07:55:32;100491.66;;;28.21;48.96
14882;BME280;7533;51.278;12.588;2023-07-08T08:00:37;100495.66;;;28.27;49.26
14882;BME280;7533;51.278;12.588;2023-07-08T08:05:40;100501.25;;;28.25;48.80
14882;BME280;7533;51.278;12.588;2023-07-08T08:10:43;100495.50;;;28.28;48.87
14882;BME280;7533;51.278;12.588;2023-07-08T08:15:48;100490.78;;;28.30;48.41
14882;BME280;7533;51.278;12.588;2023-07-08T08:20:51;100482.22;;;28.35;49.31
14882;BME280;7533;51.278;12.588;2023-07-08T08:25:54;100488.47;;;28.45;50.04
14882;BME280;7533;51.278;12.588;2023-07-08T08:30:58;100491.06;;;28.46;50.28
14882;BME280;7533;51.278;12.588;2023-07-08T08:36:01;100485.91;;;28.43;50.48
14882;BME280;7533;51.278;12.588;2023-07-08T08:41:11;100475.59;;;28.47;50.84
14882;BME280;7533;51.278;12.588;2023-07-08T08:46:26;100485.22;;;28.41;50.68
14882;BME280;7533;51.278;12.588;2023-07-08T08:51:32;100492.19;;;28.54;49.25
14882;BME280;7533;51.278;12.588;2023-07-08T08:56:42;100488.03;;;28.50;49.74
14882;BME280;7533;51.278;12.588;2023-07-08T09:01:53;100487.59;;;28.54;49.58
14882;BME280;7533;51.278;12.588;2023-07-08T09:07:12;100479.75;;;28.41;49.44
14882;BME280;7533;51.278;12.588;2023-07-08T09:12:20;100484.72;;;28.56;49.63
14882;BME280;7533;51.278;12.588;2023-07-08T09:17:28;100474.00;;;28.54;49.71
14882;BME280;7533;51.278;12.588;2023-07-08T09:22:41;100486.91;;;28.52;49.44
14882;BME280;7533;51.278;12.588;2023-07-08T09:27:46;100480.88;;;28.58;49.38
14882;BME280;7533;51.278;12.588;2023-07-08T09:32:51;100481.72;;;28.59;48.62
14882;BME280;7533;51.278;12.588;2023-07-08T09:37:54;100476.84;;;28.62;48.07
14882;BME280;7533;51.278;12.588;2023-07-08T09:43:01;100470.78;;;28.68;47.77
14882;BME280;7533;51.278;12.588;2023-07-08T09:48:15;100483.38;;;28.79;47.31
14882;BME280;7533;51.278;12.588;2023-07-08T09:53:18;100473.38;;;28.70;47.88
14882;BME280;7533;51.278;12.588;2023-07-08T09:58:24;100481.94;;;28.75;48.27
14882;BME280;7533;51.278;12.588;2023-07-08T10:03:32;100478.56;;;28.63;48.54
14882;BME280;7533;51.278;12.588;2023-07-08T10:08:40;100481.22;;;28.73;48.13
14882;BME280;7533;51.278;12.588;2023-07-08T10:13:48;100482.97;;;28.74;48.80
14882;BME280;7533;51.278;12.588;2023-07-08T10:19:15;100486.09;;;28.79;49.15
14882;BME280;7533;51.278;12.588;2023-07-08T10:24:43;100480.47;;;28.90;49.34
14882;BME280;7533;51.278;12.588;2023-07-08T10:29:54;100480.59;;;28.89;49.50
14882;BME280;7533;51.278;12.588;2023-07-08T10:35:15;100476.16;;;28.88;50.13
14882;BME280;7533;51.278;12.588;2023-07-08T10:40:30;100470.88;;;28.86;50.80
14882;BME280;7533;51.278;12.588;2023-07-08T10:45:41;100473.59;;;28.96;51.15
14882;BME280;7533;51.278;12.588;2023-07-08T10:50:58;100449.91;;;28.96;51.98
14882;BME280;7533;51.278;12.588;2023-07-08T10:56:13;100458.66;;;28.90;52.21
14882;BME280;7533;51.278;12.588;2023-07-08T11:01:30;100455.78;;;28.92;52.43
14882;BME280;7533;51.278;12.588;2023-07-08T11:06:46;100451.06;;;28.94;52.22
14882;BME280;7533;51.278;12.588;2023-07-08T11:11:54;100447.19;;;28.96;52.08
14882;BME280;7533;51.278;12.588;2023-07-08T11:17:11;100450.00;;;29.05;51.99
14882;BME280;7533;51.278;12.588;2023-07-08T11:22:24;100443.00;;;29.02;52.33
14882;BME280;7533;51.278;12.588;2023-07-08T11:27:32;100443.94;;;29.11;52.65
14882;BME280;7533;51.278;12.588;2023-07-08T11:32:37;100435.47;;;29.14;52.41
14882;BME280;7533;51.278;12.588;2023-07-08T11:37:46;100447.63;;;29.19;52.10
14882;BME280;7533;51.278;12.588;2023-07-08T11:42:50;100435.88;;;29.19;52.04
14882;BME280;7533;51.278;12.588;2023-07-08T11:48:06;100423.53;;;29.15;52.31
14882;BME280;7533;51.278;12.588;2023-07-08T11:53:34;100418.50;;;29.20;52.42
14882;BME280;7533;51.278;12.588;2023-07-08T11:58:51;100410.84;;;29.23;52.46
14882;BME280;7533;51.278;12.588;2023-07-08T12:03:59;100413.97;;;29.29;52.22
14882;BME280;7533;51.278;12.588;2023-07-08T12:09:25;100411.00;;;29.22;52.49
14882;BME280;7533;51.278;12.588;2023-07-08T12:14:29;100411.00;;;29.22;52.87
14882;BME280;7533;51.278;12.588;2023-07-08T12:19:34;100408.44;;;29.20;52.96
14882;BME280;7533;51.278;12.588;2023-07-08T12:24:40;100411.16;;;29.20;52.85
14882;BME280;7533;51.278;12.588;2023-07-08T12:29:43;100416.38;;;29.14;52.98
14882;BME280;7533;51.278;12.588;2023-07-08T12:34:46;100418.34;;;29.21;52.69
14882;BME280;7533;51.278;12.588;2023-07-08T12:39:57;100411.13;;;29.30;52.68
14882;BME280;7533;51.278;12.588;2023-07-08T12:45:13;100400.59;;;29.35;52.73
14882;BME280;7533;51.278;12.588;2023-07-08T12:50:16;100391.16;;;29.30;52.92
14882;BME280;7533;51.278;12.588;2023-07-08T12:55:21;100385.00;;;29.45;52.51
14882;BME280;7533;51.278;12.588;2023-07-08T13:00:30;100388.28;;;29.49;52.42
14882;BME280;7533;51.278;12.588;2023-07-08T13:05:38;100394.19;;;29.44;52.80
14882;BME280;7533;51.278;12.588;2023-07-08T13:10:43;100390.06;;;29.40;52.94
14882;BME280;7533;51.278;12.588;2023-07-08T13:15:47;100390.63;;;29.44;52.62
14882;BME280;7533;51.278;12.588;2023-07-08T13:20:53;100384.31;;;29.43;53.19
14882;BME280;7533;51.278;12.588;2023-07-08T13:25:58;100373.78;;;29.48;53.07
14882;BME280;7533;51.278;12.588;2023-07-08T13:31:13;100375.84;;;29.64;52.74
14882;BME280;7533;51.278;12.588;2023-07-08T13:36:19;100369.53;;;29.64;53.12
14882;BME280;7533;51.278;12.588;2023-07-08T13:41:24;100364.69;;;29.58;52.76
14882;BME280;7533;51.278;12.588;2023-07-08T13:46:34;100360.16;;;29.66;53.08
14882;BME280;7533;51.278;12.588;2023-07-08T13:51:39;100352.66;;;29.68;52.73
14882;BME280;7533;51.278;12.588;2023-07-08T13:56:46;100360.09;;;29.58;53.52
14882;BME280;7533;51.278;12.588;2023-07-08T14:01:54;100345.03;;;29.72;53.01
14882;BME280;7533;51.278;12.588;2023-07-08T14:07:11;100348.44;;;29.74;53.02
14882;BME280;7533;51.278;12.588;2023-07-08T14:12:18;100356.31;;;29.77;53.31
14882;BME280;7533;51.278;12.588;2023-07-08T14:17:25;100357.72;;;29.45;54.01
14882;BME280;7533;51.278;12.588;2023-07-08T14:22:30;100351.34;;;29.72;53.81
14882;BME280;7533;51.278;12.588;2023-07-08T14:27:38;100349.31;;;29.57;53.97
14882;BME280;7533;51.278;12.588;2023-07-08T14:32:41;100337.44;;;29.84;53.28
14882;BME280;7533;51.278;12.588;2023-07-08T14:37:52;100350.97;;;29.93;53.01
14882;BME280;7533;51.278;12.588;2023-07-08T14:43:03;100340.22;;;29.92;53.12
14882;BME280;7533;51.278;12.588;2023-07-08T14:48:10;100341.28;;;29.99;52.91
14882;BME280;7533;51.278;12.588;2023-07-08T14:53:14;100341.59;;;29.96;52.90
14882;BME280;7533;51.278;12.588;2023-07-08T14:58:22;100344.84;;;29.91;53.46
14882;BME280;7533;51.278;12.588;2023-07-08T15:03:26;100344.28;;;29.88;53.34
14882;BME280;7533;51.278;12.588;2023-07-08T15:08:29;100341.41;;;29.89;53.56
14882;BME280;7533;51.278;12.588;2023-07-08T15:13:48;100339.13;;;29.85;53.28
14882;BME280;7533;51.278;12.588;2023-07-08T15:18:52;100339.50;;;29.90;53.52
14882;BME280;7533;51.278;12.588;2023-07-08T15:23:56;100323.34;;;29.96;53.39
14882;BME280;7533;51.278;12.588;2023-07-08T15:29:00;100332.91;;;29.92;53.51
14882;BME280;7533;51.278;12.588;2023-07-08T15:34:07;100319.81;;;29.78;54.15
14882;BME280;7533;51.278;12.588;2023-07-08T15:39:10;100326.84;;;29.81;54.21
14882;BME280;7533;51.278;12.588;2023-07-08T15:44:18;100325.88;;;29.90;53.94
14882;BME280;7533;51.278;12.588;2023-07-08T15:49:25;100324.38;;;29.95;53.77
14882;BME280;7533;51.278;12.588;2023-07-08T15:54:45;100321.50;;;29.97;53.87
14882;BME280;7533;51.278;12.588;2023-07-08T15:59:51;100317.72;;;30.16;54.04
14882;BME280;7533;51.278;12.588;2023-07-08T16:05:09;100312.00;;;30.09;54.26
14882;BME280;7533;51.278;12.588;2023-07-08T16:10:13;100308.00;;;30.21;53.67
14882;BME280;7533;51.278;12.588;2023-07-08T16:15:19;100307.84;;;30.23;53.74
14882;BME280;7533;51.278;12.588;2023-07-08T16:20:28;100315.25;;;30.39;53.59
14882;BME280;7533;51.278;12.588;2023-07-08T16:25:36;100324.34;;;30.47;53.48
14882;BME280;7533;51.278;12.588;2023-07-08T16:30:46;100326.34;;;30.71;53.05
14882;BME280;7533;51.278;12.588;2023-07-08T16:36:14;100315.91;;;30.75;52.80
14882;BME280;7533;51.278;12.588;2023-07-08T16:41:32;100321.78;;;30.88;52.55
14882;BME280;7533;51.278;12.588;2023-07-08T16:46:38;100314.63;;;31.03;52.19
14882;BME280;7533;51.278;12.588;2023-07-08T16:51:41;100309.13;;;30.95;52.74
14882;BME280;7533;51.278;12.588;2023-07-08T16:56:45;100315.66;;;31.19;52.02
14882;BME280;7533;51.278;12.588;2023-07-08T17:01:50;100315.16;;;31.15;52.24
14882;BME280;7533;51.278;12.588;2023-07-08T17:06:53;100312.63;;;31.30;52.16
14882;BME280;7533;51.278;12.588;2023-07-08T17:11:56;100308.50;;;31.58;51.44
14882;BME280;7533;51.278;12.588;2023-07-08T17:17:01;100301.84;;;31.61;51.65
14882;BME280;7533;51.278;12.588;2023-07-08T17:22:04;100297.22;;;31.70;51.56
14882;BME280;7533;51.278;12.588;2023-07-08T17:27:07;100307.31;;;31.61;51.51
14882;BME280;7533;51.278;12.588;2023-07-08T17:32:11;100299.81;;;31.55;51.91
14882;BME280;7533;51.278;12.588;2023-07-08T17:37:14;100301.34;;;31.57;51.88
14882;BME280;7533;51.278;12.588;2023-07-08T17:42:17;100298.63;;;31.49;52.20
14882;BME280;7533;51.278;12.588;2023-07-08T17:47:22;100297.59;;;31.50;52.20
14882;BME280;7533;51.278;12.588;2023-07-08T17:52:25;100298.94;;;31.46;52.16
14882;BME280;7533;51.278;12.588;2023-07-08T17:57:28;100299.78;;;31.47;52.53
14882;BME280;7533;51.278;12.588;2023-07-08T18:02:32;100301.69;;;31.46;52.75
14882;BME280;7533;51.278;12.588;2023-07-08T18:07:35;100297.75;;;31.49;52.54
14882;BME280;7533;51.278;12.588;2023-07-08T18:12:38;100297.75;;;31.49;52.57
14882;BME280;7533;51.278;12.588;2023-07-08T18:17:43;100305.78;;;31.50;52.64
14882;BME280;7533;51.278;12.588;2023-07-08T18:22:53;100300.81;;;31.54;52.81
14882;BME280;7533;51.278;12.588;2023-07-08T18:27:57;100304.56;;;31.53;52.80
14882;BME280;7533;51.278;12.588;2023-07-08T18:33:13;100311.59;;;31.55;53.07
14882;BME280;7533;51.278;12.588;2023-07-08T18:38:17;100303.53;;;31.54;52.74
14882;BME280;7533;51.278;12.588;2023-07-08T18:43:21;100312.97;;;31.43;52.87
14882;BME280;7533;51.278;12.588;2023-07-08T18:48:29;100319.47;;;31.34;52.97
14882;BME280;7533;51.278;12.588;2023-07-08T18:53:32;100326.97;;;31.48;53.08
14882;BME280;7533;51.278;12.588;2023-07-08T18:58:35;100322.22;;;31.50;53.03
14882;BME280;7533;51.278;12.588;2023-07-08T19:03:40;100332.78;;;31.53;52.83
14882;BME280;7533;51.278;12.588;2023-07-08T19:08:44;100331.78;;;31.54;52.90
14882;BME280;7533;51.278;12.588;2023-07-08T19:13:50;100333.63;;;31.54;52.73
14882;BME280;7533;51.278;12.588;2023-07-08T19:18:57;100339.47;;;31.51;53.10
14882;BME280;7533;51.278;12.588;2023-07-08T19:24:01;100343.94;;;31.44;53.18
14882;BME280;7533;51.278;12.588;2023-07-08T19:29:04;100345.81;;;31.51;53.04
14882;BME280;7533;51.278;12.588;2023-07-08T19:34:11;100354.84;;;31.52;53.20
14882;BME280;7533;51.278;12.588;2023-07-08T19:39:15;100359.28;;;31.53;53.06
14882;BME280;7533;51.278;12.588;2023-07-08T19:44:23;100363.59;;;31.55;52.84
14882;BME280;7533;51.278;12.588;2023-07-08T19:49:28;100362.38;;;31.58;53.07
14882;BME280;7533;51.278;12.588;2023-07-08T19:54:31;100370.59;;;31.58;53.15
14882;BME280;7533;51.278;12.588;2023-07-08T19:59:34;100377.75;;;31.59;53.18
14882;BME280;7533;51.278;12.588;2023-07-08T20:04:38;100375.88;;;31.59;53.08
14882;BME280;7533;51.278;12.588;2023-07-08T20:09:41;100377.63;;;31.60;53.08
14882;BME280;7533;51.278;12.588;2023-07-08T20:14:44;100381.88;;;31.63;52.77
14882;BME280;7533;51.278;12.588;2023-07-08T20:19:57;100390.28;;;31.62;52.70
14882;BME280;7533;51.278;12.588;2023-07-08T20:25:01;100393.84;;;31.62;52.71
14882;BME280;7533;51.278;12.588;2023-07-08T20:30:13;100382.72;;;31.64;52.31
14882;BME280;7533;51.278;12.588;2023-07-08T20:35:22;100385.28;;;31.65;51.95
14882;BME280;7533;51.278;12.588;2023-07-08T20:40:27;100391.78;;;31.64;52.04
14882;BME280;7533;51.278;12.588;2023-07-08T20:45:32;100406.84;;;31.68;51.79
14882;BME280;7533;51.278;12.588;2023-07-08T20:50:37;100408.75;;;31.68;51.55
14882;BME280;7533;51.278;12.588;2023-07-08T20:55:41;100411.81;;;31.65;51.73
14882;BME280;7533;51.278;12.588;2023-07-08T21:00:45;100414.53;;;31.65;51.59
14882;BME280;7533;51.278;12.588;2023-07-08T21:05:52;100409.41;;;31.70;51.43
14882;BME280;7533;51.278;12.588;2023-07-08T21:10:56;100414.38;;;31.66;51.37
14882;BME280;7533;51.278;12.588;2023-07-08T21:15:59;100418.13;;;31.65;51.28
14882;BME280;7533;51.278;12.588;2023-07-08T21:21:04;100433.69;;;31.65;51.57
14882;BME280;7533;51.278;12.588;2023-07-08T21:26:16;100435.75;;;31.63;51.64
14882;BME280;7533;51.278;12.588;2023-07-08T21:31:19;100434.91;;;31.62;51.59
14882;BME280;7533;51.278;12.588;2023-07-08T21:36:25;100434.53;;;31.65;51.63
14882;BME280;7533;51.278;12.588;2023-07-08T21:41:30;100439.16;;;31.65;51.60
14882;BME280;7533;51.278;12.588;2023-07-08T21:46:33;100438.31;;;31.64;51.52
14882;BME280;7533;51.278;12.588;2023-07-08T21:51:39;100442.59;;;31.67;51.48
14882;BME280;7533;51.278;12.588;2023-07-08T21:56:41;100435.94;;;31.69;51.09
14882;BME280;7533;51.278;12.588;2023-07-08T22:01:45;100445.16;;;31.68;50.48
14882;BME280;7533;51.278;12.588;2023-07-08T22:06:49;100444.31;;;31.68;50.62
14882;BME280;7533;51.278;12.588;2023-07-08T22:11:53;100448.59;;;31.70;50.56
14882;BME280;7533;51.278;12.588;2023-07-08T22:16:56;100451.31;;;31.70;50.43
14882;BME280;7533;51.278;12.588;2023-07-08T22:22:13;100445.00;;;31.70;50.37
14882;BME280;7533;51.278;12.588;2023-07-08T22:27:15;100454.06;;;31.70;50.32
14882;BME280;7533;51.278;12.588;2023-07-08T22:32:18;100452.88;;;31.73;50.13
14882;BME280;7533;51.278;12.588;2023-07-08T22:37:22;100467.59;;;31.72;50.09
14882;BME280;7533;51.278;12.588;2023-07-08T22:42:25;100467.91;;;31.69;50.12
14882;BME280;7533;51.278;12.588;2023-07-08T22:47:28;100467.59;;;31.72;50.02
14882;BME280;7533;51.278;12.588;2023-07-08T22:52:35;100474.94;;;31.71;50.10
14882;BME280;7533;51.278;12.588;2023-07-08T22:57:39;100464.69;;;31.73;49.98
14882;BME280;7533;51.278;12.588;2023-07-08T23:02:42;100469.63;;;31.70;49.85
14882;BME280;7533;51.278;12.588;2023-07-08T23:07:46;100473.88;;;31.64;49.71
14882;BME280;7533;51.278;12.588;2023-07-08T23:12:49;100473.56;;;31.67;49.73
14882;BME280;7533;51.278;12.588;2023-07-08T23:17:51;100471.69;;;31.68;49.50
14882;BME280;7533;51.278;12.588;2023-07-08T23:22:56;100466.38;;;31.66;49.52
14882;BME280;7533;51.278;12.588;2023-07-08T23:27:59;100473.03;;;31.64;49.57
14882;BME280;7533;51.278;12.588;2023-07-08T23:33:02;100471.50;;;31.61;49.47
14882;BME280;7533;51.278;12.588;2023-07-08T23:38:07;100473.56;;;31.67;49.29
14882;BME280;7533;51.278;12.588;2023-07-08T23:43:14;100478.16;;;31.58;49.39
14882;BME280;7533;51.278;12.588;2023-07-08T23:48:18;100472.19;;;31.55;49.33
14882;BME280;7533;51.278;12.588;2023-07-08T23:53:23;100471.31;;;31.54;49.25
14882;BME280;7533;51.278;12.588;2023-07-08T23:58:26;100471.81;;;31.50;49.60
